sensor_id;sensor_type;location;lat;lon;timestamp;P1;durP1;ratioP1;P2;durP2;ratioP2
61356;SDS011;47227;46.752;23.576;2022-10-17T00:01:47;6.50;;;5.60;;
61356;SDS011;47227;46.752;23.576;2022-10-17T00:04:13;9.20;;;5.50;;
61356;SDS011;47227;46.752;23.576;2022-10-17T00:06:40;16.00;;;5.40;;
61356;SDS011;47227;46.752;23.576;2022-10-17T00:09:06;9.30;;;5.80;;
61356;SDS011;47227;46.752;23.576;2022-10-17T00:11:34;9.50;;;5.80;;
61356;SDS011;47227;46.752;23.576;2022-10-17T00:14:01;7.40;;;6.20;;
61356;SDS011;47227;46.752;23.576;2022-10-17T00:16:30;8.10;;;5.70;;
61356;SDS011;47227;46.752;23.576;2022-10-17T00:18:59;8.20;;;5.60;;
61356;SDS011;47227;46.752;23.576;2022-10-17T00:21:25;11.60;;;5.90;;
61356;SDS011;47227;46.752;23.576;2022-10-17T00:23:52;14.00;;;6.30;;
61356;SDS011;47227;46.752;23.576;2022-10-17T00:26:19;8.60;;;5.30;;
61356;SDS011;47227;46.752;23.576;2022-10-17T00:28:46;6.50;;;5.10;;
61356;SDS011;47227;46.752;23.576;2022-10-17T00:31:15;9.40;;;5.30;;
61356;SDS011;47227;46.752;23.576;2022-10-17T00:33:43;9.10;;;5.30;;
61356;SDS011;47227;46.752;23.576;2022-10-17T00:36:11;7.10;;;4.30;;
61356;SDS011;47227;46.752;23.576;2022-10-17T00:38:41;11.80;;;4.80;;
61356;SDS011;47227;46.752;23.576;2022-10-17T00:41:09;11.80;;;4.70;;
61356;SDS011;47227;46.752;23.576;2022-10-17T00:46:26;11.70;;;4.70;;
61356;SDS011;47227;46.752;23.576;2022-10-17T00:48:55;7.60;;;4.60;;
61356;SDS011;47227;46.752;23.576;2022-10-17T00:51:27;6.70;;;4.90;;
61356;SDS011;47227;46.752;23.576;2022-10-17T00:53:59;6.10;;;5.00;;
61356;SDS011;47227;46.752;23.576;2022-10-17T00:56:28;9.50;;;5.60;;
61356;SDS011;47227;46.752;23.576;2022-10-17T00:58:55;7.00;;;4.70;;
61356;SDS011;47227;46.752;23.576;2022-10-17T01:01:22;8.90;;;5.60;;
61356;SDS011;47227;46.752;23.576;2022-10-17T01:03:48;8.90;;;5.20;;
61356;SDS011;47227;46.752;23.576;2022-10-17T01:06:14;8.40;;;6.00;;
61356;SDS011;47227;46.752;23.576;2022-10-17T01:08:41;8.70;;;5.50;;
61356;SDS011;47227;46.752;23.576;2022-10-17T01:14:05;6.70;;;5.30;;
61356;SDS011;47227;46.752;23.576;2022-10-17T01:16:43;9.60;;;5.10;;
61356;SDS011;47227;46.752;23.576;2022-10-17T01:22:13;11.10;;;4.60;;
61356;SDS011;47227;46.752;23.576;2022-10-17T01:24:58;6.90;;;4.70;;
61356;SDS011;47227;46.752;23.576;2022-10-17T01:27:47;10.10;;;4.10;;
61356;SDS011;47227;46.752;23.576;2022-10-17T01:33:21;9.80;;;4.20;;
61356;SDS011;47227;46.752;23.576;2022-10-17T01:36:00;6.90;;;3.80;;
61356;SDS011;47227;46.752;23.576;2022-10-17T01:38:37;10.00;;;4.00;;
61356;SDS011;47227;46.752;23.576;2022-10-17T01:41:14;7.50;;;4.00;;
61356;SDS011;47227;46.752;23.576;2022-10-17T01:43:58;6.20;;;4.10;;
61356;SDS011;47227;46.752;23.576;2022-10-17T01:46:35;5.40;;;4.00;;
61356;SDS011;47227;46.752;23.576;2022-10-17T01:49:03;6.10;;;4.40;;
61356;SDS011;47227;46.752;23.576;2022-10-17T01:51:35;5.40;;;4.40;;
61356;SDS011;47227;46.752;23.576;2022-10-17T01:54:08;7.50;;;4.50;;
61356;SDS011;47227;46.752;23.576;2022-10-17T01:56:45;7.60;;;4.70;;
61356;SDS011;47227;46.752;23.576;2022-10-17T01:59:18;7.40;;;4.70;;
61356;SDS011;47227;46.752;23.576;2022-10-17T02:01:49;7.70;;;5.60;;
61356;SDS011;47227;46.752;23.576;2022-10-17T02:04:18;9.10;;;5.40;;
61356;SDS011;47227;46.752;23.576;2022-10-17T02:06:45;5.90;;;5.20;;
61356;SDS011;47227;46.752;23.576;2022-10-17T02:09:15;8.30;;;5.20;;
61356;SDS011;47227;46.752;23.576;2022-10-17T02:11:48;8.80;;;5.50;;
61356;SDS011;47227;46.752;23.576;2022-10-17T02:20:08;13.50;;;5.10;;
61356;SDS011;47227;46.752;23.576;2022-10-17T02:22:57;15.50;;;5.30;;
61356;SDS011;47227;46.752;23.576;2022-10-17T02:25:37;10.90;;;5.10;;
61356;SDS011;47227;46.752;23.576;2022-10-17T02:28:15;7.20;;;4.00;;
61356;SDS011;47227;46.752;23.576;2022-10-17T02:31:08;9.50;;;4.20;;
61356;SDS011;47227;46.752;23.576;2022-10-17T02:33:43;8.40;;;4.20;;
61356;SDS011;47227;46.752;23.576;2022-10-17T02:36:16;6.10;;;4.10;;
61356;SDS011;47227;46.752;23.576;2022-10-17T02:38:47;6.40;;;4.00;;
61356;SDS011;47227;46.752;23.576;2022-10-17T02:41:16;5.60;;;4.10;;
61356;SDS011;47227;46.752;23.576;2022-10-17T02:43:45;7.60;;;4.20;;
61356;SDS011;47227;46.752;23.576;2022-10-17T02:46:13;6.00;;;3.70;;
61356;SDS011;47227;46.752;23.576;2022-10-17T02:48:47;7.40;;;4.00;;
61356;SDS011;47227;46.752;23.576;2022-10-17T02:51:23;12.40;;;4.60;;
61356;SDS011;47227;46.752;23.576;2022-10-17T02:54:06;6.00;;;3.70;;
61356;SDS011;47227;46.752;23.576;2022-10-17T02:56:41;4.90;;;4.00;;
61356;SDS011;47227;46.752;23.576;2022-10-17T02:59:14;5.60;;;4.30;;
61356;SDS011;47227;46.752;23.576;2022-10-17T03:01:42;9.80;;;4.90;;
61356;SDS011;47227;46.752;23.576;2022-10-17T03:04:10;8.70;;;5.00;;
61356;SDS011;47227;46.752;23.576;2022-10-17T03:06:39;12.10;;;5.10;;
61356;SDS011;47227;46.752;23.576;2022-10-17T03:09:06;10.40;;;5.40;;
61356;SDS011;47227;46.752;23.576;2022-10-17T03:11:33;5.50;;;5.00;;
61356;SDS011;47227;46.752;23.576;2022-10-17T03:13:59;7.80;;;5.50;;
61356;SDS011;47227;46.752;23.576;2022-10-17T03:16:26;9.70;;;6.00;;
61356;SDS011;47227;46.752;23.576;2022-10-17T03:18:52;11.30;;;5.30;;
61356;SDS011;47227;46.752;23.576;2022-10-17T03:21:19;9.90;;;5.90;;
61356;SDS011;47227;46.752;23.576;2022-10-17T03:23:46;9.80;;;6.50;;
61356;SDS011;47227;46.752;23.576;2022-10-17T03:26:12;9.10;;;6.40;;
61356;SDS011;47227;46.752;23.576;2022-10-17T03:28:39;11.50;;;6.10;;
61356;SDS011;47227;46.752;23.576;2022-10-17T03:31:08;11.10;;;5.50;;
61356;SDS011;47227;46.752;23.576;2022-10-17T03:33:36;10.00;;;6.00;;
61356;SDS011;47227;46.752;23.576;2022-10-17T03:36:04;8.30;;;5.80;;
61356;SDS011;47227;46.752;23.576;2022-10-17T03:38:35;5.80;;;4.30;;
61356;SDS011;47227;46.752;23.576;2022-10-17T03:41:04;7.20;;;4.50;;
61356;SDS011;47227;46.752;23.576;2022-10-17T03:43:34;6.30;;;4.30;;
61356;SDS011;47227;46.752;23.576;2022-10-17T03:46:02;6.20;;;4.00;;
61356;SDS011;47227;46.752;23.576;2022-10-17T03:48:33;7.20;;;4.30;;
61356;SDS011;47227;46.752;23.576;2022-10-17T03:51:03;6.30;;;3.50;;
61356;SDS011;47227;46.752;23.576;2022-10-17T03:53:33;5.70;;;3.50;;
61356;SDS011;47227;46.752;23.576;2022-10-17T03:56:09;7.20;;;3.50;;
61356;SDS011;47227;46.752;23.576;2022-10-17T03:58:39;4.70;;;3.40;;
61356;SDS011;47227;46.752;23.576;2022-10-17T04:01:07;6.10;;;2.90;;
61356;SDS011;47227;46.752;23.576;2022-10-17T04:03:37;4.50;;;3.40;;
61356;SDS011;47227;46.752;23.576;2022-10-17T04:06:05;7.00;;;4.00;;
61356;SDS011;47227;46.752;23.576;2022-10-17T04:08:35;7.20;;;3.60;;
61356;SDS011;47227;46.752;23.576;2022-10-17T04:11:10;5.10;;;4.20;;
61356;SDS011;47227;46.752;23.576;2022-10-17T04:13:42;7.30;;;4.40;;
61356;SDS011;47227;46.752;23.576;2022-10-17T04:16:12;6.40;;;4.60;;
61356;SDS011;47227;46.752;23.576;2022-10-17T04:18:56;5.60;;;4.00;;
61356;SDS011;47227;46.752;23.576;2022-10-17T04:21:27;12.80;;;4.90;;
61356;SDS011;47227;46.752;23.576;2022-10-17T04:23:59;10.60;;;5.60;;
61356;SDS011;47227;46.752;23.576;2022-10-17T04:26:42;6.80;;;4.60;;
61356;SDS011;47227;46.752;23.576;2022-10-17T04:29:09;12.50;;;6.10;;
61356;SDS011;47227;46.752;23.576;2022-10-17T04:31:38;7.40;;;5.40;;
61356;SDS011;47227;46.752;23.576;2022-10-17T04:34:13;18.80;;;6.80;;
61356;SDS011;47227;46.752;23.576;2022-10-17T04:36:42;10.30;;;5.10;;
61356;SDS011;47227;46.752;23.576;2022-10-17T04:39:09;9.40;;;5.40;;
61356;SDS011;47227;46.752;23.576;2022-10-17T04:41:37;11.80;;;7.40;;
61356;SDS011;47227;46.752;23.576;2022-10-17T04:44:06;13.10;;;7.10;;
61356;SDS011;47227;46.752;23.576;2022-10-17T04:46:36;8.70;;;7.00;;
61356;SDS011;47227;46.752;23.576;2022-10-17T04:49:06;9.60;;;4.90;;
61356;SDS011;47227;46.752;23.576;2022-10-17T04:51:36;6.20;;;4.80;;
61356;SDS011;47227;46.752;23.576;2022-10-17T04:54:21;11.10;;;7.60;;
61356;SDS011;47227;46.752;23.576;2022-10-17T04:56:53;9.80;;;6.30;;
61356;SDS011;47227;46.752;23.576;2022-10-17T04:59:21;9.20;;;5.10;;
61356;SDS011;47227;46.752;23.576;2022-10-17T05:01:53;13.10;;;6.10;;
61356;SDS011;47227;46.752;23.576;2022-10-17T05:04:21;9.20;;;6.30;;
61356;SDS011;47227;46.752;23.576;2022-10-17T05:06:52;12.60;;;6.50;;
61356;SDS011;47227;46.752;23.576;2022-10-17T05:09:38;11.40;;;6.10;;
61356;SDS011;47227;46.752;23.576;2022-10-17T05:12:06;8.90;;;4.90;;
61356;SDS011;47227;46.752;23.576;2022-10-17T05:14:38;6.10;;;4.30;;
61356;SDS011;47227;46.752;23.576;2022-10-17T05:17:06;8.80;;;6.20;;
61356;SDS011;47227;46.752;23.576;2022-10-17T05:19:34;10.40;;;4.90;;
61356;SDS011;47227;46.752;23.576;2022-10-17T05:22:02;20.90;;;6.30;;
61356;SDS011;47227;46.752;23.576;2022-10-17T05:24:30;9.40;;;5.10;;
61356;SDS011;47227;46.752;23.576;2022-10-17T05:26:57;10.80;;;5.60;;
61356;SDS011;47227;46.752;23.576;2022-10-17T05:29:25;6.60;;;4.70;;
61356;SDS011;47227;46.752;23.576;2022-10-17T05:32:01;8.10;;;4.20;;
61356;SDS011;47227;46.752;23.576;2022-10-17T05:34:34;10.90;;;5.10;;
61356;SDS011;47227;46.752;23.576;2022-10-17T05:37:02;7.50;;;5.90;;
61356;SDS011;47227;46.752;23.576;2022-10-17T05:39:31;20.10;;;8.40;;
61356;SDS011;47227;46.752;23.576;2022-10-17T05:41:59;17.60;;;9.60;;
61356;SDS011;47227;46.752;23.576;2022-10-17T05:44:27;14.30;;;8.60;;
61356;SDS011;47227;46.752;23.576;2022-10-17T05:46:58;14.60;;;8.50;;
61356;SDS011;47227;46.752;23.576;2022-10-17T05:49:32;14.50;;;7.00;;
61356;SDS011;47227;46.752;23.576;2022-10-17T05:52:16;6.70;;;5.10;;
61356;SDS011;47227;46.752;23.576;2022-10-17T05:54:55;9.60;;;5.60;;
61356;SDS011;47227;46.752;23.576;2022-10-17T05:57:24;7.90;;;5.80;;
61356;SDS011;47227;46.752;23.576;2022-10-17T05:59:53;9.90;;;5.40;;
61356;SDS011;47227;46.752;23.576;2022-10-17T06:02:21;8.30;;;6.30;;
61356;SDS011;47227;46.752;23.576;2022-10-17T06:04:49;9.90;;;6.00;;
61356;SDS011;47227;46.752;23.576;2022-10-17T06:07:20;9.10;;;6.10;;
61356;SDS011;47227;46.752;23.576;2022-10-17T06:09:51;7.40;;;5.00;;
61356;SDS011;47227;46.752;23.576;2022-10-17T06:12:21;6.10;;;4.70;;
61356;SDS011;47227;46.752;23.576;2022-10-17T06:14:49;8.20;;;4.80;;
61356;SDS011;47227;46.752;23.576;2022-10-17T06:17:20;12.30;;;5.90;;
61356;SDS011;47227;46.752;23.576;2022-10-17T06:19:51;19.80;;;8.20;;
61356;SDS011;47227;46.752;23.576;2022-10-17T06:22:19;17.80;;;9.80;;
61356;SDS011;47227;46.752;23.576;2022-10-17T06:24:50;16.50;;;8.80;;
61356;SDS011;47227;46.752;23.576;2022-10-17T06:27:28;11.50;;;8.20;;
61356;SDS011;47227;46.752;23.576;2022-10-17T06:30:04;14.60;;;8.60;;
61356;SDS011;47227;46.752;23.576;2022-10-17T06:32:42;17.40;;;9.10;;
61356;SDS011;47227;46.752;23.576;2022-10-17T06:35:41;20.80;;;8.80;;
61356;SDS011;47227;46.752;23.576;2022-10-17T06:39:20;15.90;;;10.60;;
61356;SDS011;47227;46.752;23.576;2022-10-17T06:46:58;15.70;;;9.10;;
61356;SDS011;47227;46.752;23.576;2022-10-17T06:50:13;12.90;;;6.20;;
61356;SDS011;47227;46.752;23.576;2022-10-17T06:53:19;13.30;;;7.70;;
61356;SDS011;47227;46.752;23.576;2022-10-17T06:56:27;9.80;;;6.60;;
61356;SDS011;47227;46.752;23.576;2022-10-17T06:59:30;14.00;;;7.20;;
61356;SDS011;47227;46.752;23.576;2022-10-17T07:02:09;11.60;;;5.20;;
61356;SDS011;47227;46.752;23.576;2022-10-17T07:04:47;6.20;;;5.50;;
61356;SDS011;47227;46.752;23.576;2022-10-17T07:07:16;12.60;;;5.40;;
61356;SDS011;47227;46.752;23.576;2022-10-17T07:09:44;12.00;;;6.20;;
61356;SDS011;47227;46.752;23.576;2022-10-17T07:12:10;17.20;;;7.00;;
61356;SDS011;47227;46.752;23.576;2022-10-17T07:14:42;10.60;;;5.90;;
61356;SDS011;47227;46.752;23.576;2022-10-17T07:17:11;10.50;;;6.00;;
61356;SDS011;47227;46.752;23.576;2022-10-17T07:19:37;15.60;;;7.40;;
61356;SDS011;47227;46.752;23.576;2022-10-17T07:22:06;10.70;;;7.60;;
61356;SDS011;47227;46.752;23.576;2022-10-17T07:24:35;15.60;;;7.90;;
61356;SDS011;47227;46.752;23.576;2022-10-17T07:27:20;20.10;;;8.70;;
61356;SDS011;47227;46.752;23.576;2022-10-17T07:29:48;16.00;;;8.00;;
61356;SDS011;47227;46.752;23.576;2022-10-17T07:32:20;13.60;;;7.90;;
61356;SDS011;47227;46.752;23.576;2022-10-17T07:34:48;13.20;;;8.00;;
61356;SDS011;47227;46.752;23.576;2022-10-17T07:37:16;10.50;;;7.80;;
61356;SDS011;47227;46.752;23.576;2022-10-17T07:39:53;15.70;;;7.60;;
61356;SDS011;47227;46.752;23.576;2022-10-17T07:42:23;20.90;;;7.90;;
61356;SDS011;47227;46.752;23.576;2022-10-17T07:44:53;15.80;;;9.30;;
61356;SDS011;47227;46.752;23.576;2022-10-17T07:47:22;13.90;;;9.20;;
61356;SDS011;47227;46.752;23.576;2022-10-17T07:49:52;17.40;;;9.10;;
61356;SDS011;47227;46.752;23.576;2022-10-17T07:52:22;16.10;;;9.70;;
61356;SDS011;47227;46.752;23.576;2022-10-17T07:54:55;18.20;;;10.60;;
61356;SDS011;47227;46.752;23.576;2022-10-17T07:57:38;18.40;;;10.90;;
61356;SDS011;47227;46.752;23.576;2022-10-17T08:00:14;28.20;;;11.50;;
61356;SDS011;47227;46.752;23.576;2022-10-17T08:03:22;29.70;;;12.40;;
61356;SDS011;47227;46.752;23.576;2022-10-17T08:06:17;23.20;;;11.20;;
61356;SDS011;47227;46.752;23.576;2022-10-17T08:09:12;24.70;;;11.50;;
61356;SDS011;47227;46.752;23.576;2022-10-17T08:11:42;19.40;;;11.00;;
61356;SDS011;47227;46.752;23.576;2022-10-17T08:18:23;29.40;;;13.00;;
61356;SDS011;47227;46.752;23.576;2022-10-17T08:25:06;22.70;;;11.70;;
61356;SDS011;47227;46.752;23.576;2022-10-17T08:27:55;26.60;;;12.10;;
61356;SDS011;47227;46.752;23.576;2022-10-17T08:30:25;19.00;;;11.60;;
61356;SDS011;47227;46.752;23.576;2022-10-17T08:33:01;20.00;;;12.00;;
61356;SDS011;47227;46.752;23.576;2022-10-17T08:36:04;22.80;;;10.90;;
61356;SDS011;47227;46.752;23.576;2022-10-17T08:38:36;19.50;;;11.10;;
61356;SDS011;47227;46.752;23.576;2022-10-17T08:41:24;20.70;;;10.50;;
61356;SDS011;47227;46.752;23.576;2022-10-17T08:44:25;22.10;;;11.10;;
61356;SDS011;47227;46.752;23.576;2022-10-17T08:47:05;16.30;;;10.80;;
61356;SDS011;47227;46.752;23.576;2022-10-17T08:49:47;22.00;;;10.30;;
61356;SDS011;47227;46.752;23.576;2022-10-17T08:52:38;19.70;;;10.60;;
61356;SDS011;47227;46.752;23.576;2022-10-17T08:55:13;17.80;;;11.40;;
61356;SDS011;47227;46.752;23.576;2022-10-17T08:57:51;30.00;;;13.30;;
61356;SDS011;47227;46.752;23.576;2022-10-17T09:00:24;20.70;;;11.60;;
61356;SDS011;47227;46.752;23.576;2022-10-17T09:03:14;22.40;;;11.50;;
61356;SDS011;47227;46.752;23.576;2022-10-17T09:06:47;14.60;;;9.90;;
61356;SDS011;47227;46.752;23.576;2022-10-17T09:10:22;15.70;;;9.80;;
61356;SDS011;47227;46.752;23.576;2022-10-17T09:13:36;16.80;;;10.50;;
61356;SDS011;47227;46.752;23.576;2022-10-17T09:25:12;13.70;;;9.60;;
61356;SDS011;47227;46.752;23.576;2022-10-17T09:29:04;22.90;;;11.60;;
61356;SDS011;47227;46.752;23.576;2022-10-17T09:32:35;21.30;;;11.70;;
61356;SDS011;47227;46.752;23.576;2022-10-17T09:46:12;21.80;;;12.60;;
61356;SDS011;47227;46.752;23.576;2022-10-17T09:49:31;18.30;;;10.90;;
61356;SDS011;47227;46.752;23.576;2022-10-17T09:54:35;20.30;;;12.00;;
61356;SDS011;47227;46.752;23.576;2022-10-17T09:57:03;16.90;;;9.20;;
61356;SDS011;47227;46.752;23.576;2022-10-17T10:00:26;24.10;;;12.00;;
61356;SDS011;47227;46.752;23.576;2022-10-17T10:03:08;19.70;;;12.20;;
61356;SDS011;47227;46.752;23.576;2022-10-17T10:12:22;31.10;;;14.80;;
61356;SDS011;47227;46.752;23.576;2022-10-17T10:15:28;22.20;;;14.10;;
61356;SDS011;47227;46.752;23.576;2022-10-17T10:19:05;24.70;;;14.60;;
61356;SDS011;47227;46.752;23.576;2022-10-17T10:23:03;27.40;;;13.20;;
61356;SDS011;47227;46.752;23.576;2022-10-17T10:29:22;29.40;;;13.50;;
61356;SDS011;47227;46.752;23.576;2022-10-17T10:34:52;25.00;;;12.60;;
61356;SDS011;47227;46.752;23.576;2022-10-17T10:37:28;25.60;;;12.80;;
61356;SDS011;47227;46.752;23.576;2022-10-17T10:43:02;30.60;;;12.00;;
61356;SDS011;47227;46.752;23.576;2022-10-17T10:45:44;21.30;;;12.60;;
61356;SDS011;47227;46.752;23.576;2022-10-17T10:52:24;19.10;;;11.70;;
61356;SDS011;47227;46.752;23.576;2022-10-17T11:00:12;17.60;;;10.60;;
61356;SDS011;47227;46.752;23.576;2022-10-17T11:04:22;14.70;;;10.60;;
61356;SDS011;47227;46.752;23.576;2022-10-17T11:12:02;18.40;;;11.50;;
61356;SDS011;47227;46.752;23.576;2022-10-17T11:19:46;12.30;;;10.20;;
61356;SDS011;47227;46.752;23.576;2022-10-17T11:27:54;18.70;;;9.80;;
61356;SDS011;47227;46.752;23.576;2022-10-17T11:31:26;20.70;;;9.70;;
61356;SDS011;47227;46.752;23.576;2022-10-17T11:49:30;10.70;;;8.10;;
61356;SDS011;47227;46.752;23.576;2022-10-17T11:53:33;8.90;;;7.00;;
61356;SDS011;47227;46.752;23.576;2022-10-17T12:11:59;8.50;;;6.30;;
61356;SDS011;47227;46.752;23.576;2022-10-17T12:14:41;9.30;;;6.70;;
61356;SDS011;47227;46.752;23.576;2022-10-17T12:20:16;10.50;;;6.40;;
61356;SDS011;47227;46.752;23.576;2022-10-17T12:23:03;8.40;;;4.60;;
61356;SDS011;47227;46.752;23.576;2022-10-17T12:25:57;7.90;;;5.30;;
61356;SDS011;47227;46.752;23.576;2022-10-17T12:28:40;4.00;;;3.60;;
61356;SDS011;47227;46.752;23.576;2022-10-17T12:34:00;7.20;;;4.90;;
61356;SDS011;47227;46.752;23.576;2022-10-17T12:36:35;5.40;;;4.90;;
61356;SDS011;47227;46.752;23.576;2022-10-17T12:42:27;14.90;;;4.80;;
61356;SDS011;47227;46.752;23.576;2022-10-17T12:48:57;5.20;;;4.00;;
61356;SDS011;47227;46.752;23.576;2022-10-17T12:55:30;6.00;;;4.10;;
61356;SDS011;47227;46.752;23.576;2022-10-17T12:58:11;7.30;;;4.50;;
61356;SDS011;47227;46.752;23.576;2022-10-17T13:00:58;5.10;;;3.80;;
61356;SDS011;47227;46.752;23.576;2022-10-17T13:03:47;7.10;;;4.40;;
61356;SDS011;47227;46.752;23.576;2022-10-17T13:06:19;9.00;;;4.60;;
61356;SDS011;47227;46.752;23.576;2022-10-17T13:08:49;7.90;;;4.80;;
61356;SDS011;47227;46.752;23.576;2022-10-17T13:11:31;7.50;;;4.40;;
61356;SDS011;47227;46.752;23.576;2022-10-17T13:14:00;8.20;;;3.90;;
61356;SDS011;47227;46.752;23.576;2022-10-17T13:16:42;13.20;;;4.80;;
61356;SDS011;47227;46.752;23.576;2022-10-17T13:19:18;6.60;;;3.70;;
61356;SDS011;47227;46.752;23.576;2022-10-17T13:21:49;11.40;;;4.10;;
61356;SDS011;47227;46.752;23.576;2022-10-17T13:24:29;6.30;;;4.40;;
61356;SDS011;47227;46.752;23.576;2022-10-17T13:26:58;8.80;;;4.50;;
61356;SDS011;47227;46.752;23.576;2022-10-17T13:29:25;5.90;;;4.20;;
61356;SDS011;47227;46.752;23.576;2022-10-17T13:31:55;7.10;;;4.60;;
61356;SDS011;47227;46.752;23.576;2022-10-17T13:34:26;7.80;;;4.20;;
61356;SDS011;47227;46.752;23.576;2022-10-17T13:36:54;15.20;;;4.50;;
61356;SDS011;47227;46.752;23.576;2022-10-17T13:39:27;6.70;;;4.50;;
61356;SDS011;47227;46.752;23.576;2022-10-17T13:42:21;8.30;;;4.90;;
61356;SDS011;47227;46.752;23.576;2022-10-17T13:44:51;10.80;;;4.90;;
61356;SDS011;47227;46.752;23.576;2022-10-17T13:47:24;10.30;;;4.90;;
61356;SDS011;47227;46.752;23.576;2022-10-17T13:49:53;16.90;;;4.60;;
61356;SDS011;47227;46.752;23.576;2022-10-17T13:52:23;5.40;;;4.20;;
61356;SDS011;47227;46.752;23.576;2022-10-17T13:55:05;5.00;;;4.50;;
61356;SDS011;47227;46.752;23.576;2022-10-17T13:57:52;10.00;;;5.20;;
61356;SDS011;47227;46.752;23.576;2022-10-17T14:00:27;5.60;;;4.70;;
61356;SDS011;47227;46.752;23.576;2022-10-17T14:02:54;8.40;;;5.10;;
61356;SDS011;47227;46.752;23.576;2022-10-17T14:05:24;8.30;;;5.00;;
61356;SDS011;47227;46.752;23.576;2022-10-17T14:07:53;8.70;;;4.30;;
61356;SDS011;47227;46.752;23.576;2022-10-17T14:10:44;6.20;;;4.40;;
61356;SDS011;47227;46.752;23.576;2022-10-17T14:13:18;4.90;;;4.20;;
61356;SDS011;47227;46.752;23.576;2022-10-17T14:15:53;5.30;;;3.80;;
61356;SDS011;47227;46.752;23.576;2022-10-17T14:18:33;8.20;;;3.70;;
61356;SDS011;47227;46.752;23.576;2022-10-17T14:21:23;8.30;;;4.10;;
61356;SDS011;47227;46.752;23.576;2022-10-17T14:24:11;6.50;;;4.10;;
61356;SDS011;47227;46.752;23.576;2022-10-17T14:26:56;4.90;;;3.80;;
61356;SDS011;47227;46.752;23.576;2022-10-17T14:29:27;9.60;;;4.00;;
61356;SDS011;47227;46.752;23.576;2022-10-17T14:32:04;8.60;;;4.30;;
61356;SDS011;47227;46.752;23.576;2022-10-17T14:34:35;6.60;;;4.10;;
61356;SDS011;47227;46.752;23.576;2022-10-17T14:37:09;8.70;;;5.00;;
61356;SDS011;47227;46.752;23.576;2022-10-17T14:40:29;11.00;;;4.80;;
61356;SDS011;47227;46.752;23.576;2022-10-17T14:44:03;6.70;;;4.60;;
61356;SDS011;47227;46.752;23.576;2022-10-17T14:46:37;8.60;;;4.80;;
61356;SDS011;47227;46.752;23.576;2022-10-17T14:49:26;5.00;;;4.50;;
61356;SDS011;47227;46.752;23.576;2022-10-17T14:55:00;14.20;;;5.70;;
61356;SDS011;47227;46.752;23.576;2022-10-17T14:57:46;13.10;;;5.30;;
61356;SDS011;47227;46.752;23.576;2022-10-17T15:00:14;8.60;;;4.90;;
61356;SDS011;47227;46.752;23.576;2022-10-17T15:02:43;10.30;;;4.80;;
61356;SDS011;47227;46.752;23.576;2022-10-17T15:05:10;10.10;;;5.00;;
61356;SDS011;47227;46.752;23.576;2022-10-17T15:07:39;10.80;;;5.50;;
61356;SDS011;47227;46.752;23.576;2022-10-17T15:10:09;22.70;;;5.40;;
61356;SDS011;47227;46.752;23.576;2022-10-17T15:12:52;16.90;;;5.40;;
61356;SDS011;47227;46.752;23.576;2022-10-17T15:15:36;22.40;;;6.10;;
61356;SDS011;47227;46.752;23.576;2022-10-17T15:18:04;16.80;;;4.80;;
61356;SDS011;47227;46.752;23.576;2022-10-17T15:20:32;17.70;;;5.30;;
61356;SDS011;47227;46.752;23.576;2022-10-17T15:23:00;13.60;;;5.60;;
61356;SDS011;47227;46.752;23.576;2022-10-17T15:25:28;13.30;;;5.50;;
61356;SDS011;47227;46.752;23.576;2022-10-17T15:27:55;16.60;;;7.70;;
61356;SDS011;47227;46.752;23.576;2022-10-17T15:30:24;24.40;;;7.80;;
61356;SDS011;47227;46.752;23.576;2022-10-17T15:32:52;24.30;;;9.60;;
61356;SDS011;47227;46.752;23.576;2022-10-17T15:35:19;24.50;;;10.00;;
61356;SDS011;47227;46.752;23.576;2022-10-17T15:37:47;24.10;;;9.00;;
61356;SDS011;47227;46.752;23.576;2022-10-17T15:40:16;17.80;;;7.80;;
61356;SDS011;47227;46.752;23.576;2022-10-17T15:42:44;16.10;;;7.50;;
61356;SDS011;47227;46.752;23.576;2022-10-17T15:45:11;18.20;;;7.60;;
61356;SDS011;47227;46.752;23.576;2022-10-17T15:47:40;27.50;;;7.90;;
61356;SDS011;47227;46.752;23.576;2022-10-17T15:50:11;23.40;;;9.00;;
61356;SDS011;47227;46.752;23.576;2022-10-17T15:52:39;33.90;;;9.40;;
61356;SDS011;47227;46.752;23.576;2022-10-17T15:55:06;14.90;;;7.30;;
61356;SDS011;47227;46.752;23.576;2022-10-17T15:57:35;17.10;;;7.00;;
61356;SDS011;47227;46.752;23.576;2022-10-17T16:00:04;18.60;;;7.10;;
61356;SDS011;47227;46.752;23.576;2022-10-17T16:02:35;12.10;;;7.50;;
61356;SDS011;47227;46.752;23.576;2022-10-17T16:05:01;20.00;;;9.00;;
61356;SDS011;47227;46.752;23.576;2022-10-17T16:07:34;17.30;;;8.90;;
61356;SDS011;47227;46.752;23.576;2022-10-17T16:10:01;18.60;;;9.10;;
61356;SDS011;47227;46.752;23.576;2022-10-17T16:12:28;23.60;;;9.90;;
61356;SDS011;47227;46.752;23.576;2022-10-17T16:14:56;18.30;;;10.40;;
61356;SDS011;47227;46.752;23.576;2022-10-17T16:17:22;19.30;;;10.10;;
61356;SDS011;47227;46.752;23.576;2022-10-17T16:19:48;19.40;;;9.90;;
61356;SDS011;47227;46.752;23.576;2022-10-17T16:22:29;21.20;;;9.80;;
61356;SDS011;47227;46.752;23.576;2022-10-17T16:25:02;19.30;;;10.40;;
61356;SDS011;47227;46.752;23.576;2022-10-17T16:27:36;14.20;;;9.40;;
61356;SDS011;47227;46.752;23.576;2022-10-17T16:30:03;22.20;;;9.50;;
61356;SDS011;47227;46.752;23.576;2022-10-17T16:32:31;25.00;;;9.40;;
61356;SDS011;47227;46.752;23.576;2022-10-17T16:34:58;15.20;;;8.90;;
61356;SDS011;47227;46.752;23.576;2022-10-17T16:37:25;14.00;;;8.40;;
61356;SDS011;47227;46.752;23.576;2022-10-17T16:39:52;20.50;;;8.80;;
61356;SDS011;47227;46.752;23.576;2022-10-17T16:42:19;11.30;;;7.90;;
61356;SDS011;47227;46.752;23.576;2022-10-17T16:44:46;12.00;;;8.50;;
61356;SDS011;47227;46.752;23.576;2022-10-17T16:47:13;11.60;;;7.60;;
61356;SDS011;47227;46.752;23.576;2022-10-17T16:49:40;15.80;;;8.00;;
61356;SDS011;47227;46.752;23.576;2022-10-17T16:52:11;12.60;;;7.50;;
61356;SDS011;47227;46.752;23.576;2022-10-17T16:54:37;12.80;;;7.30;;
61356;SDS011;47227;46.752;23.576;2022-10-17T16:57:04;13.50;;;7.00;;
61356;SDS011;47227;46.752;23.576;2022-10-17T16:59:30;18.70;;;8.00;;
61356;SDS011;47227;46.752;23.576;2022-10-17T17:01:56;16.30;;;7.00;;
61356;SDS011;47227;46.752;23.576;2022-10-17T17:04:23;12.90;;;7.10;;
61356;SDS011;47227;46.752;23.576;2022-10-17T17:06:49;8.90;;;7.00;;
61356;SDS011;47227;46.752;23.576;2022-10-17T17:09:15;18.10;;;8.40;;
61356;SDS011;47227;46.752;23.576;2022-10-17T17:11:42;26.10;;;9.10;;
61356;SDS011;47227;46.752;23.576;2022-10-17T17:14:09;15.40;;;6.90;;
61356;SDS011;47227;46.752;23.576;2022-10-17T17:16:36;10.60;;;6.50;;
61356;SDS011;47227;46.752;23.576;2022-10-17T17:19:04;10.80;;;7.00;;
61356;SDS011;47227;46.752;23.576;2022-10-17T17:22:10;13.00;;;7.40;;
61356;SDS011;47227;46.752;23.576;2022-10-17T17:24:36;16.10;;;7.70;;
61356;SDS011;47227;46.752;23.576;2022-10-17T17:27:03;9.00;;;7.10;;
61356;SDS011;47227;46.752;23.576;2022-10-17T17:29:29;13.70;;;7.30;;
61356;SDS011;47227;46.752;23.576;2022-10-17T18:11:41;15.20;;;7.70;;
61356;SDS011;47227;46.752;23.576;2022-10-17T18:14:10;9.40;;;7.40;;
61356;SDS011;47227;46.752;23.576;2022-10-17T18:16:39;13.30;;;7.60;;
61356;SDS011;47227;46.752;23.576;2022-10-17T18:19:07;16.00;;;8.20;;
61356;SDS011;47227;46.752;23.576;2022-10-17T18:21:36;13.00;;;7.30;;
61356;SDS011;47227;46.752;23.576;2022-10-17T18:24:04;12.70;;;7.70;;